Flight Track Log - Related Links

Times and Time Zones

All times are in EDT time to prevent confusion due to time zone crossing. See the N163EG flight status page for this flight to view local times or setup timezone preferences in your user account.

Time Position Orientation Groundspeed Altitude Reporting Facility
EDT Latitude Longitude Course Direction KTS MPH feet Rate Location/Type
Mon 01:18:12 PM 33.9530 -84.2600 23° Northeast 4,900  Level FlightAware ADS-B
Mon 01:18:22 PM 33.9620 -84.2580 10° North 5,200 2,554 Climbing FlightAware ADS-B
Mon 01:18:42 PM 33.9810 -84.2690 334° Northwest 6,000 2,580 Climbing FlightAware ADS-B
Mon 01:18:52 PM 33.9890 -84.2780 317° Northwest 6,300 2,594 Climbing FlightAware ADS-B
Mon 01:19:22 PM 34.0150 -84.3060 318° Northwest 7,700 2,625 Climbing FlightAware ADS-B
Mon 01:19:47 PM 34.0390 -84.3310 319° Northwest 9,000 2,602 Climbing FlightAware ADS-B
Mon 01:20:32 PM 34.0820 -84.3790 317° Northwest 10,900 2,537 Climbing FlightAware ADS-B
Mon 01:21:12 PM 34.1270 -84.4250 320° Northwest 12,200 2,538 Climbing FlightAware ADS-B
Mon 01:21:57 PM 34.1840 -84.4800 321° Northwest 14,100 2,741 Climbing FlightAware ADS-B
Mon 01:22:38 PM 34.2492 -84.5381 324° Northwest 15,900 2,873 Climbing FlightAware ADS-B
Mon 01:23:08 PM 34.3001 -84.5548 345° North 360 414 17,500 2,903 Climbing FlightAware ADS-B
Mon 01:23:40 PM 34.3554 -84.5707 347° North 372 428 18,900 2,476 Climbing FlightAware ADS-B
Mon 01:24:11 PM 34.4096 -84.5866 346° North 367 422 20,100 1,258 Climbing FlightAware ADS-B
Mon 01:24:42 PM 34.4674 -84.6030 347° North 430 495 20,200 1,619 Climbing FlightAware ADS-B
Mon 01:25:14 PM 34.5298 -84.6210 347° North 404 465 21,800 3,238 Climbing FlightAware ADS-B
Mon 01:25:45 PM 34.5879 -84.6374 347° North 412 474 23,600 1,839 Climbing FlightAware ADS-B
Mon 01:26:16 PM 34.6474 -84.6537 347° North 411 473 23,700 968 Climbing FlightAware ADS-B
Mon 01:26:47 PM 34.7108 -84.6712 347° North 469 540 24,600 2,613 Climbing FlightAware ADS-B
Mon 01:27:18 PM 34.7716 -84.6881 347° North 405 466 26,400 2,647 Climbing FlightAware ADS-B
Mon 01:27:55 PM 34.8441 -84.7076 348° North 419 482 27,600 1,775 Climbing FlightAware ADS-B
Mon 01:28:29 PM 34.9122 -84.7254 348° North 464 534 28,500 1,754 Climbing FlightAware ADS-B
Mon 01:29:00 PM 34.9746 -84.7420 348° North 439 505 29,500 938 Climbing FlightAware ADS-B
Mon 01:29:33 PM 35.0429 -84.7602 348° North 461 531 29,500 1,644 Level FlightAware ADS-B
Mon 01:30:13 PM 35.1281 -84.7827 348° North 470 541 31,500 3,042 Climbing FlightAware ADS-B
Mon 01:30:44 PM 35.1867 -84.7979 348° North 424 488 33,100 1,935 Climbing FlightAware ADS-B
Mon 01:31:15 PM 35.2450 -84.8123 349° North 412 474 33,500 381 Climbing FlightAware ADS-B
Mon 01:31:47 PM 35.3117 -84.8293 348° North 453 521 33,500  Level FlightAware ADS-B
Mon 01:32:17 PM 35.3745 -84.8458 348° North 448 516 33,500  Level FlightAware ADS-B
Mon 01:32:48 PM 35.4410 -84.8639 347° North 480 552 33,500  Level FlightAware ADS-B
Mon 01:33:21 PM 35.5052 -84.9015 335° Northwest 485 558 33,500 -667 Level FlightAware ADS-B
Mon 01:33:51 PM 35.5326 -84.9677 297° West 427 491 32,800 -1,770 Descending FlightAware ADS-B
Mon 01:34:22 PM 35.5182 -85.0379 256° West 438 504 31,700 -1,969 Descending FlightAware ADS-B
Mon 01:34:55 PM 35.4647 -85.0776 211° Southwest 425 489 30,700 -1,714 Descending FlightAware ADS-B
Mon 01:35:25 PM 35.4026 -85.0703 175° South 449 517 29,900 -1,869 Descending FlightAware ADS-B
Mon 01:35:56 PM 35.3335 -85.0588 172° South 475 547 28,800 -1,938 Descending FlightAware ADS-B
Mon 01:36:30 PM 35.2610 -85.0597 181° South 443 510 27,800 -831 Descending FlightAware ADS-B
Mon 01:37:01 PM 35.2053 -85.0800 197° South 407 468 27,900 393 Climbing FlightAware ADS-B
Mon 01:37:31 PM 35.1770 -85.1368 239° Southwest 390 449 28,200 -179 Climbing FlightAware ADS-B
Mon 01:38:08 PM 35.2045 -85.2113 294° West 420 483 27,700 -716 Descending FlightAware ADS-B
Mon 01:38:38 PM 35.2660 -85.2284 347° North 510 587 27,400 393 Descending FlightAware ADS-B
Mon 01:39:09 PM 35.3206 -85.1918 29° Northeast 440 506 28,100 581 Climbing FlightAware ADS-B
Mon 01:39:40 PM 35.3478 -85.1200 65° Northeast 473 544 28,000 98 Descending FlightAware ADS-B
Mon 01:40:10 PM 35.3242 -85.0442 111° Southeast 466 536 28,200 400 Climbing FlightAware ADS-B
Mon 01:40:40 PM 35.2691 -85.0097 153° Southeast 440 506 28,400 484 Climbing FlightAware ADS-B
Mon 01:41:12 PM 35.2090 -85.0293 195° South 416 479 28,700  Climbing FlightAware ADS-B
Mon 01:41:44 PM 35.1515 -85.0648 207° Southwest 426 490 28,400  Descending FlightAware ADS-B
Mon 01:42:16 PM 35.0872 -85.0912 199° South 477 549 28,700 95 Climbing FlightAware ADS-B
Mon 01:42:47 PM 35.0239 -85.1194 200° South 475 547 28,500 -1,548 Descending FlightAware ADS-B
Mon 01:43:18 PM 34.9602 -85.1433 197° South 458 527 27,100 -3,344 Descending FlightAware ADS-B
Mon 01:43:48 PM 34.8996 -85.1662 197° South 454 522 25,100 -3,639 Descending FlightAware ADS-B
Mon 01:44:19 PM 34.8375 -85.1902 198° South 425 489 23,400 -3,097 Descending FlightAware ADS-B
Mon 01:44:50 PM 34.7769 -85.2140 198° South 439 505 21,900 -2,806 Descending FlightAware ADS-B
Mon 01:45:21 PM 34.7184 -85.2380 199° South 427 491 20,500 -2,951 Descending FlightAware ADS-B
Mon 01:45:51 PM 34.6620 -85.2581 196° South 400 460 18,900 -2,754 Descending FlightAware ADS-B
Mon 01:46:22 PM 34.6036 -85.2463 171° South 404 465 17,700 -1,967 Descending FlightAware ADS-B
Mon 01:46:52 PM 34.5471 -85.2290 166° South 437 503 16,900 -2,273 Descending FlightAware ADS-B
Mon 01:47:28 PM 34.4830 -85.2038 162° South 379 436 15,200 -1,176 Descending FlightAware ADS-B
Mon 01:53:12 PM 34.1150 -84.7650 135° Southeast 6,900 -1,088 Descending FlightAware ADS-B
Mon 01:53:42 PM 34.0960 -84.7280 122° Southeast 6,500 -711 Descending FlightAware ADS-B
Mon 01:54:37 PM 34.0560 -84.6540 123° Southeast 5,500 -702 Descending FlightAware ADS-B
Mon 01:56:12 PM 33.9930 -84.5370 123° Southeast 4,000 -615 Descending FlightAware ADS-B
Mon 01:56:42 PM 33.9730 -84.4990 122° Southeast 4,000 -403 Level FlightAware ADS-B
Mon 01:57:12 PM 33.9530 -84.4620 123° Southeast 3,900 -504 Descending FlightAware ADS-B
Mon 01:57:37 PM 33.9360 -84.4300 123° Southeast 3,700 -607 Descending FlightAware ADS-B
Mon 01:58:07 PM 33.9180 -84.3960 123° Southeast 3,500 -656 Descending FlightAware ADS-B
Mon 01:58:41 PM 33.8919 -84.3617 123° Southeast 256 295 3,000 -647 Descending Atlanta Center
Mon 01:59:49 PM 33.8333 -84.3333 158° South 187 215 2,400 -529 Descending Atlanta TRACON
Mon 02:01:00 PM 33.8667 -84.3000 124° Southeast  Level FlightAware Approximate
Mon 02:08:00 PM 33.8756 -84.3020 124° Southeast  Level Estimated
Mon 02:09:00 PM 33.8756 -84.3020 124° Southeast  Level Estimated

Login

Don't have an account? Register now (free) for customized features, flight alerts, and more!